createdAt,value
2019-02-11T00:01:01.895Z,6.40
2019-02-11T00:03:31.574Z,6.40
2019-02-11T00:06:01.244Z,6.40
2019-02-11T00:08:30.864Z,6.40
2019-02-11T00:11:00.579Z,6.30
2019-02-11T00:13:30.233Z,6.30
2019-02-11T00:15:59.887Z,6.10
2019-02-11T00:18:29.560Z,6.00
2019-02-11T00:20:59.220Z,5.90
2019-02-11T00:23:28.859Z,5.90
2019-02-11T00:25:58.586Z,5.80
2019-02-11T00:28:28.251Z,5.80
2019-02-11T00:30:57.984Z,5.70
2019-02-11T00:33:27.612Z,5.70
2019-02-11T00:35:57.301Z,5.60
2019-02-11T00:38:26.991Z,5.50
2019-02-11T00:40:56.644Z,5.40
2019-02-11T00:43:26.329Z,5.30
2019-02-11T00:45:55.989Z,5.30
2019-02-11T00:48:25.680Z,5.30
2019-02-11T00:50:55.361Z,5.30
2019-02-11T00:53:25.112Z,5.30
2019-02-11T00:55:54.778Z,5.30
2019-02-11T00:58:24.478Z,5.30
2019-02-11T01:00:54.127Z,5.30
2019-02-11T01:03:23.837Z,5.30
2019-02-11T01:05:53.552Z,5.30
2019-02-11T01:08:23.207Z,5.20
2019-02-11T01:10:52.871Z,5.20
2019-02-11T01:13:27.797Z,5.10
2019-02-11T01:15:53.875Z,5.10
2019-02-11T01:18:23.552Z,5.10
2019-02-11T01:20:53.244Z,5.00
2019-02-11T01:23:22.882Z,4.90
2019-02-11T01:25:52.539Z,4.80
2019-02-11T01:28:22.246Z,4.60
2019-02-11T01:30:51.928Z,4.40
2019-02-11T01:33:21.587Z,4.30
2019-02-11T01:35:51.302Z,4.20
2019-02-11T01:38:20.939Z,4.10
2019-02-11T01:40:50.669Z,4.10
2019-02-11T01:43:20.389Z,3.70
2019-02-11T01:45:50.067Z,3.50
2019-02-11T01:48:19.732Z,3.30
2019-02-11T01:50:49.444Z,3.10
2019-02-11T01:53:19.066Z,3.10
2019-02-11T01:55:48.729Z,3.00
2019-02-11T01:58:18.383Z,2.80
2019-02-11T02:00:48.029Z,2.80
2019-02-11T02:03:17.687Z,2.70
2019-02-11T02:05:47.325Z,2.70
2019-02-11T02:08:17.005Z,2.70
2019-02-11T02:10:46.661Z,2.70
2019-02-11T02:13:16.337Z,2.60
2019-02-11T02:15:45.954Z,2.60
2019-02-11T02:18:15.599Z,2.70
2019-02-11T02:20:45.227Z,2.70
2019-02-11T02:23:14.883Z,2.70
2019-02-11T02:25:44.565Z,2.70
2019-02-11T02:28:14.313Z,2.70
2019-02-11T02:30:43.957Z,2.70
2019-02-11T02:33:13.633Z,2.70
2019-02-11T02:35:43.343Z,2.70
2019-02-11T02:38:13.036Z,2.60
2019-02-11T02:40:42.660Z,2.60
2019-02-11T02:43:12.370Z,2.50
2019-02-11T02:45:42.013Z,2.40
2019-02-11T02:48:11.682Z,2.30
2019-02-11T02:50:41.319Z,2.10
2019-02-11T02:53:11.017Z,1.90
2019-02-11T02:55:40.677Z,1.80
2019-02-11T02:58:10.306Z,1.70
2019-02-11T03:00:39.949Z,1.70
2019-02-11T03:03:09.583Z,1.60
2019-02-11T03:05:39.215Z,1.60
2019-02-11T03:08:08.839Z,1.60
2019-02-11T03:10:38.529Z,1.60
2019-02-11T03:13:09.887Z,1.60
2019-02-11T03:15:39.508Z,1.70
2019-02-11T03:18:09.180Z,1.70
2019-02-11T03:20:38.823Z,1.70
2019-02-11T03:23:08.453Z,1.80
2019-02-11T03:25:38.106Z,1.70
2019-02-11T03:28:07.806Z,1.70
2019-02-11T03:30:37.466Z,1.70
2019-02-11T03:33:07.139Z,1.70
2019-02-11T03:35:36.796Z,1.80
2019-02-11T03:38:06.454Z,1.80
2019-02-11T03:40:36.689Z,1.90
2019-02-11T03:43:06.354Z,1.90
2019-02-11T03:45:36.039Z,2.00
2019-02-11T03:48:05.745Z,2.10
2019-02-11T03:50:35.420Z,2.20
2019-02-11T03:53:05.086Z,2.30
2019-02-11T03:55:34.752Z,2.40
2019-02-11T03:58:04.468Z,2.50
2019-02-11T04:00:34.141Z,2.50
2019-02-11T04:03:03.802Z,2.60
2019-02-11T04:05:33.457Z,2.70
2019-02-11T04:08:03.129Z,2.80
2019-02-11T04:10:32.814Z,2.80
2019-02-11T04:13:02.475Z,2.90
2019-02-11T04:15:32.134Z,3.00
2019-02-11T04:18:01.835Z,3.00
2019-02-11T04:20:31.458Z,3.10
2019-02-11T04:23:01.118Z,3.20
2019-02-11T04:25:30.779Z,3.20
2019-02-11T04:28:00.446Z,3.30
2019-02-11T04:30:30.290Z,3.40
2019-02-11T04:32:59.953Z,3.50
2019-02-11T04:35:29.646Z,3.60
2019-02-11T04:37:59.331Z,3.60
2019-02-11T04:40:28.982Z,3.70
2019-02-11T04:42:58.610Z,3.70
2019-02-11T04:45:28.302Z,3.80
2019-02-11T04:47:57.969Z,3.80
2019-02-11T04:50:27.627Z,3.80
2019-02-11T04:52:57.292Z,3.90
2019-02-11T04:55:27.898Z,3.90
2019-02-11T04:57:57.553Z,3.90
2019-02-11T05:00:27.310Z,3.90
2019-02-11T05:02:56.960Z,3.90
2019-02-11T05:05:26.669Z,3.90
2019-02-11T05:07:59.324Z,3.90
2019-02-11T05:10:29.011Z,3.90
2019-02-11T05:12:58.665Z,4.00
2019-02-11T05:15:28.388Z,4.00
2019-02-11T05:17:58.060Z,4.00
2019-02-11T05:20:47.094Z,4.00
2019-02-11T05:23:16.759Z,4.00
2019-02-11T05:26:05.444Z,4.00
2019-02-11T05:28:35.095Z,4.00
2019-02-11T05:31:04.721Z,4.00
2019-02-11T05:33:53.370Z,4.00
2019-02-11T05:36:23.107Z,4.10
2019-02-11T05:38:52.797Z,4.10
2019-02-11T05:41:22.464Z,4.10
2019-02-11T05:43:52.099Z,4.10
2019-02-11T05:46:21.795Z,4.10
2019-02-11T05:48:51.450Z,4.20
2019-02-11T05:51:21.152Z,4.20
2019-02-11T05:53:50.808Z,4.10
2019-02-11T05:56:20.493Z,4.10
2019-02-11T05:58:50.171Z,4.10
2019-02-11T06:01:20.229Z,4.10
2019-02-11T06:03:49.907Z,4.20
2019-02-11T06:06:19.566Z,4.20
2019-02-11T06:08:49.217Z,4.20
2019-02-11T06:11:18.870Z,4.20
2019-02-11T06:13:48.544Z,4.20
2019-02-11T06:16:18.226Z,4.30
2019-02-11T06:18:47.895Z,4.30
2019-02-11T06:21:17.560Z,4.30
2019-02-11T06:23:47.237Z,4.30
2019-02-11T06:26:16.884Z,4.40
2019-02-11T06:28:46.602Z,4.40
2019-02-11T06:31:16.288Z,4.40
2019-02-11T06:33:46.032Z,4.40
2019-02-11T06:36:15.750Z,4.50
2019-02-11T06:38:45.462Z,4.50
2019-02-11T06:41:15.127Z,4.50
2019-02-11T06:43:44.816Z,4.50
2019-02-11T06:46:14.465Z,4.50
2019-02-11T06:48:44.134Z,4.50
2019-02-11T06:51:13.784Z,4.50
2019-02-11T06:53:43.525Z,4.50
2019-02-11T06:56:13.175Z,4.50
2019-02-11T06:58:42.809Z,4.50
2019-02-11T07:01:12.471Z,4.60
2019-02-11T07:03:42.236Z,4.60
2019-02-11T07:06:11.914Z,4.60
2019-02-11T07:08:41.577Z,4.60
2019-02-11T07:11:11.285Z,4.60
2019-02-11T07:13:40.960Z,4.70
2019-02-11T07:16:10.648Z,4.70
2019-02-11T07:18:40.348Z,4.70
2019-02-11T07:21:10.014Z,4.70
2019-02-11T07:23:39.830Z,4.70
2019-02-11T07:26:09.483Z,4.70
2019-02-11T07:28:39.176Z,4.70
2019-02-11T07:31:08.861Z,4.70
2019-02-11T07:33:38.561Z,4.80
2019-02-11T07:36:08.247Z,4.90
2019-02-11T07:38:37.966Z,4.90
2019-02-11T07:41:07.627Z,4.90
2019-02-11T07:43:44.472Z,4.90
2019-02-11T07:46:33.027Z,5.00
2019-02-11T07:49:02.758Z,5.00
2019-02-11T07:51:32.423Z,5.00
2019-02-11T07:54:02.199Z,5.10
2019-02-11T07:56:31.910Z,5.20
2019-02-11T07:59:01.599Z,5.20
2019-02-11T08:01:31.284Z,5.10
2019-02-11T08:04:00.993Z,5.00
2019-02-11T08:06:30.702Z,4.90
2019-02-11T08:09:00.370Z,4.80
2019-02-11T08:11:30.076Z,4.80
2019-02-11T08:13:59.733Z,4.80
2019-02-11T08:16:29.465Z,4.70
2019-02-11T08:18:59.115Z,4.70
2019-02-11T08:21:28.818Z,4.80
2019-02-11T08:23:58.451Z,4.90
2019-02-11T08:26:28.162Z,4.90
2019-02-11T08:28:57.852Z,5.00
2019-02-11T08:31:27.500Z,5.10
2019-02-11T08:33:57.150Z,5.20
2019-02-11T08:36:26.898Z,5.30
2019-02-11T08:38:56.687Z,5.30
2019-02-11T08:41:26.407Z,5.30
2019-02-11T08:43:56.045Z,5.40
2019-02-11T08:46:25.772Z,5.40
2019-02-11T08:48:55.450Z,5.40
2019-02-11T08:51:26.156Z,5.40
2019-02-11T08:53:55.907Z,5.50
2019-02-11T08:56:25.583Z,5.50
2019-02-11T08:58:55.194Z,5.50
2019-02-11T09:01:24.862Z,5.50
2019-02-11T09:03:54.618Z,5.60
2019-02-11T09:06:24.313Z,5.50
2019-02-11T09:08:53.950Z,5.50
2019-02-11T09:11:23.636Z,5.50
2019-02-11T09:13:53.294Z,5.40
2019-02-11T09:16:22.983Z,5.40
2019-02-11T09:18:52.610Z,5.40
2019-02-11T09:21:22.308Z,5.50
2019-02-11T09:23:51.952Z,5.50
2019-02-11T09:26:21.617Z,5.60
2019-02-11T09:28:51.248Z,5.60
2019-02-11T09:31:20.978Z,5.60
2019-02-11T09:33:50.618Z,5.70
2019-02-11T09:36:20.271Z,5.70
2019-02-11T09:38:49.925Z,5.80
2019-02-11T09:41:19.597Z,5.80
2019-02-11T09:43:49.209Z,5.80
2019-02-11T09:46:19.980Z,5.80
2019-02-11T09:48:49.626Z,5.90
2019-02-11T09:51:19.424Z,6.00
2019-02-11T09:53:49.048Z,6.10
2019-02-11T09:56:18.759Z,6.10
2019-02-11T09:58:48.373Z,6.10
2019-02-11T10:01:18.101Z,6.20
2019-02-11T10:03:47.790Z,6.20
2019-02-11T10:06:17.438Z,6.20
2019-02-11T10:08:47.104Z,6.20
2019-02-11T10:11:16.918Z,6.20
2019-02-11T10:13:46.567Z,6.20
2019-02-11T10:16:16.234Z,6.20
2019-02-11T10:18:45.961Z,6.20
2019-02-11T10:21:15.697Z,6.20
2019-02-11T10:23:45.377Z,6.20
2019-02-11T10:26:15.028Z,6.30
2019-02-11T10:28:44.705Z,6.40
2019-02-11T10:31:14.476Z,6.40
2019-02-11T10:33:44.322Z,6.40
2019-02-11T10:36:14.021Z,6.50
2019-02-11T10:38:43.699Z,6.60
2019-02-11T10:41:13.353Z,6.70
2019-02-11T10:43:43.004Z,6.80
2019-02-11T10:46:20.645Z,6.80
2019-02-11T10:48:44.207Z,6.80
2019-02-11T10:51:13.805Z,6.80
2019-02-11T10:53:43.475Z,6.80
2019-02-11T10:56:13.162Z,6.90
2019-02-11T10:58:42.850Z,7.00
2019-02-11T11:01:13.383Z,7.00
2019-02-11T11:03:43.130Z,7.00
2019-02-11T11:06:12.856Z,7.00
2019-02-11T11:08:42.614Z,6.90
2019-02-11T11:11:12.269Z,7.00
2019-02-11T11:13:41.921Z,7.10
2019-02-11T11:16:11.560Z,7.20
2019-02-11T11:18:41.216Z,7.20
2019-02-11T11:21:13.038Z,7.10
2019-02-11T11:23:42.735Z,7.10
2019-02-11T11:26:12.452Z,7.10
2019-02-11T11:28:42.127Z,7.10
2019-02-11T11:31:12.271Z,7.20
2019-02-11T11:33:42.044Z,7.20
2019-02-11T11:36:11.829Z,7.20
2019-02-11T11:38:41.511Z,7.20
2019-02-11T11:41:11.246Z,7.20
2019-02-11T11:43:40.964Z,7.20
2019-02-11T11:46:10.803Z,7.10
2019-02-11T11:48:40.458Z,7.00
2019-02-11T11:51:10.167Z,7.00
2019-02-11T11:53:39.949Z,7.00
2019-02-11T11:56:09.589Z,7.10
2019-02-11T11:58:39.494Z,7.10
2019-02-11T12:01:09.143Z,7.00
2019-02-11T12:03:38.857Z,7.00
2019-02-11T12:06:08.583Z,7.00
2019-02-11T12:08:38.242Z,6.90
2019-02-11T12:11:07.942Z,7.00
2019-02-11T12:13:37.611Z,7.10
2019-02-11T12:16:07.294Z,7.00
2019-02-11T12:18:36.967Z,6.80
2019-02-11T12:21:06.668Z,6.90
2019-02-11T12:23:36.439Z,6.90
2019-02-11T12:26:06.176Z,7.00
2019-02-11T12:28:35.830Z,7.00
2019-02-11T12:31:05.548Z,6.90
2019-02-11T12:33:35.250Z,6.60
2019-02-11T12:36:04.922Z,6.30
2019-02-11T12:38:34.632Z,6.20
2019-02-11T12:41:04.297Z,6.00
2019-02-11T12:43:33.995Z,6.00
2019-02-11T12:46:03.694Z,6.10
2019-02-11T12:48:33.358Z,6.40
2019-02-11T12:51:03.873Z,6.50
2019-02-11T12:53:33.851Z,6.60
2019-02-11T12:56:03.781Z,6.80
2019-02-11T12:58:33.495Z,6.90
2019-02-11T13:01:03.586Z,7.00
2019-02-11T13:03:33.229Z,7.10
2019-02-11T13:06:02.912Z,7.10
2019-02-11T13:08:32.610Z,7.10
2019-02-11T13:11:02.267Z,7.00
2019-02-11T13:13:31.945Z,7.00
2019-02-11T13:16:03.074Z,7.00
2019-02-11T13:18:33.150Z,7.00
2019-02-11T13:21:03.099Z,7.00
2019-02-11T13:23:32.842Z,7.10
2019-02-11T13:26:02.561Z,7.10
2019-02-11T13:28:32.253Z,7.20
2019-02-11T13:31:01.945Z,7.20
2019-02-11T13:33:31.626Z,7.20
2019-02-11T13:36:01.316Z,7.10
2019-02-11T13:38:31.009Z,7.10
2019-02-11T13:41:00.672Z,7.00
2019-02-11T13:43:30.317Z,7.00
2019-02-11T13:45:59.979Z,6.90
2019-02-11T13:48:33.822Z,6.90
2019-02-11T13:51:01.013Z,6.80
2019-02-11T13:53:30.685Z,6.80
2019-02-11T13:56:04.739Z,6.90
2019-02-11T13:58:31.742Z,7.00
2019-02-11T14:01:01.413Z,7.00
2019-02-11T14:03:31.050Z,7.00
2019-02-11T14:06:00.732Z,7.00
2019-02-11T14:08:30.445Z,7.00
2019-02-11T14:11:00.117Z,6.90
2019-02-11T14:13:30.116Z,6.80
2019-02-11T14:15:59.781Z,6.80
2019-02-11T14:18:29.485Z,6.90
2019-02-11T14:20:59.147Z,7.00
2019-02-11T14:23:28.839Z,7.10
2019-02-11T14:25:58.513Z,7.10
2019-02-11T14:28:28.146Z,7.10
2019-02-11T14:30:57.817Z,7.20
2019-02-11T14:33:27.571Z,7.10
2019-02-11T14:35:57.239Z,7.10
2019-02-11T14:38:26.963Z,7.10
2019-02-11T14:40:56.585Z,7.20
2019-02-11T14:43:26.282Z,7.20
2019-02-11T14:45:55.935Z,7.10
2019-02-11T14:48:28.285Z,7.10
2019-02-11T14:50:56.962Z,6.90
2019-02-11T14:53:26.728Z,6.90
2019-02-11T14:55:56.405Z,6.90
2019-02-11T14:58:26.114Z,6.80
2019-02-11T15:00:56.013Z,6.70
2019-02-11T15:03:25.676Z,6.70
2019-02-11T15:05:55.329Z,6.70
2019-02-11T15:08:25.017Z,6.60
2019-02-11T15:10:54.654Z,6.50
2019-02-11T15:13:24.294Z,6.50
2019-02-11T15:15:53.932Z,6.50
2019-02-11T15:18:23.602Z,6.50
2019-02-11T15:20:53.250Z,6.40
2019-02-11T15:23:22.938Z,6.40
2019-02-11T15:25:52.584Z,6.30
2019-02-11T15:28:22.267Z,6.40
2019-02-11T15:30:51.932Z,6.30
2019-02-11T15:33:21.600Z,6.30
2019-02-11T15:35:51.227Z,6.20
2019-02-11T15:38:20.942Z,6.20
2019-02-11T15:40:50.612Z,6.10
2019-02-11T15:43:20.329Z,6.10
2019-02-11T15:45:49.974Z,6.10
2019-02-11T15:48:19.636Z,6.00
2019-02-11T15:50:49.286Z,6.00
2019-02-11T15:53:19.073Z,6.00
2019-02-11T15:55:48.748Z,5.90
2019-02-11T15:58:18.421Z,5.80
2019-02-11T16:00:48.061Z,5.80
2019-02-11T16:03:17.698Z,5.70
2019-02-11T16:05:49.709Z,5.60
2019-02-11T16:08:18.686Z,5.60
2019-02-11T16:10:48.343Z,5.50
2019-02-11T16:13:17.999Z,5.40
2019-02-11T16:15:47.712Z,5.40
2019-02-11T16:18:17.349Z,5.30
2019-02-11T16:20:47.033Z,5.30
2019-02-11T16:23:16.680Z,5.20
2019-02-11T16:25:46.711Z,5.20
2019-02-11T16:28:16.385Z,5.10
2019-02-11T16:30:45.990Z,5.10
2019-02-11T16:33:15.714Z,5.10
2019-02-11T16:35:45.351Z,5.00
2019-02-11T16:38:15.051Z,4.90
2019-02-11T16:40:44.689Z,4.90
2019-02-11T16:43:14.377Z,4.90
2019-02-11T16:45:44.087Z,4.80
2019-02-11T16:48:13.803Z,4.80
2019-02-11T16:50:43.457Z,4.80
2019-02-11T16:53:13.106Z,4.80
2019-02-11T16:55:43.154Z,4.80
2019-02-11T16:58:12.827Z,4.70
2019-02-11T17:00:42.488Z,4.60
2019-02-11T17:03:12.113Z,4.60
2019-02-11T17:05:41.813Z,4.60
2019-02-11T17:08:11.458Z,4.60
2019-02-11T17:10:41.505Z,4.60
2019-02-11T17:13:11.208Z,4.50
2019-02-11T17:15:40.937Z,4.50
2019-02-11T17:18:10.611Z,4.50
2019-02-11T17:20:40.329Z,4.40
2019-02-11T17:23:09.966Z,4.40
2019-02-11T17:25:39.602Z,4.40
2019-02-11T17:28:09.777Z,4.40
2019-02-11T17:30:39.484Z,4.40
2019-02-11T17:33:09.179Z,4.40
2019-02-11T17:35:38.825Z,4.40
2019-02-11T17:38:08.489Z,4.40
2019-02-11T17:40:38.188Z,4.40
2019-02-11T17:43:07.835Z,4.30
2019-02-11T17:45:37.559Z,4.30
2019-02-11T17:48:07.246Z,4.30
2019-02-11T17:50:37.019Z,4.30
2019-02-11T17:53:07.337Z,4.30
2019-02-11T17:55:37.015Z,4.30
2019-02-11T17:58:06.812Z,4.30
2019-02-11T18:00:41.938Z,4.30
2019-02-11T18:03:11.658Z,4.40
2019-02-11T18:05:41.327Z,4.40
2019-02-11T18:08:11.033Z,4.40
2019-02-11T18:10:40.719Z,4.30
2019-02-11T18:13:10.362Z,4.30
2019-02-11T18:15:40.050Z,4.30
2019-02-11T18:18:09.771Z,4.30
2019-02-11T18:20:39.447Z,4.30
2019-02-11T18:23:09.142Z,4.20
2019-02-11T18:25:38.876Z,4.20
2019-02-11T18:28:08.541Z,4.30
2019-02-11T18:30:38.153Z,4.30
2019-02-11T18:33:07.893Z,4.30
2019-02-11T18:35:37.640Z,4.30
2019-02-11T18:38:08.938Z,4.30
2019-02-11T18:40:38.946Z,4.30
2019-02-11T18:43:08.823Z,4.20
2019-02-11T18:45:38.539Z,4.20
2019-02-11T18:48:08.237Z,4.10
2019-02-11T18:50:37.913Z,4.20
2019-02-11T18:53:07.609Z,4.10
2019-02-11T18:55:37.289Z,4.10
2019-02-11T18:58:06.922Z,4.20
2019-02-11T19:00:36.578Z,4.10
2019-02-11T19:03:06.309Z,4.10
2019-02-11T19:05:35.937Z,4.10
2019-02-11T19:08:05.601Z,4.10
2019-02-11T19:10:35.321Z,4.10
2019-02-11T19:13:05.141Z,4.00
2019-02-11T19:15:34.793Z,3.90
2019-02-11T19:18:04.594Z,3.80
2019-02-11T19:20:34.238Z,3.80
2019-02-11T19:23:03.861Z,3.80
2019-02-11T19:25:33.511Z,3.70
2019-02-11T19:28:03.170Z,3.70
2019-02-11T19:30:32.787Z,3.60
2019-02-11T19:33:02.412Z,3.60
2019-02-11T19:35:32.002Z,3.60
2019-02-11T19:38:01.676Z,3.70
2019-02-11T19:40:31.369Z,3.60
2019-02-11T19:43:01.047Z,3.60
2019-02-11T19:45:30.685Z,3.60
2019-02-11T19:48:00.393Z,3.50
2019-02-11T19:50:32.780Z,3.40
2019-02-11T19:53:02.501Z,3.30
2019-02-11T19:55:32.188Z,3.30
2019-02-11T19:58:01.901Z,3.30
2019-02-11T20:00:31.930Z,3.30
2019-02-11T20:03:01.682Z,3.20
2019-02-11T20:05:31.313Z,3.20
2019-02-11T20:08:00.990Z,3.20
2019-02-11T20:10:30.654Z,3.30
2019-02-11T20:13:00.340Z,3.40
2019-02-11T20:15:30.000Z,3.50
2019-02-11T20:17:59.656Z,3.50
2019-02-11T20:20:29.400Z,3.50
2019-02-11T20:22:59.081Z,3.50
2019-02-11T20:25:28.698Z,3.40
2019-02-11T20:27:58.365Z,3.40
2019-02-11T20:30:28.150Z,3.40
2019-02-11T20:32:57.801Z,3.30
2019-02-11T20:35:27.537Z,3.20
2019-02-11T20:37:58.899Z,3.20
2019-02-11T20:40:28.488Z,3.10
2019-02-11T20:42:58.139Z,3.00
2019-02-11T20:45:28.136Z,3.00
2019-02-11T20:47:57.769Z,2.90
2019-02-11T20:50:27.386Z,2.80
2019-02-11T20:52:57.207Z,2.90
2019-02-11T20:55:26.927Z,2.80
2019-02-11T20:57:57.771Z,2.80
2019-02-11T21:00:27.667Z,2.80
2019-02-11T21:02:57.444Z,2.80
2019-02-11T21:05:27.122Z,2.80
2019-02-11T21:07:56.775Z,2.80
2019-02-11T21:10:26.488Z,2.80
2019-02-11T21:12:56.180Z,2.80
2019-02-11T21:15:25.846Z,2.70
2019-02-11T21:17:55.547Z,2.70
2019-02-11T21:20:34.026Z,2.70
2019-02-11T21:23:04.046Z,2.70
2019-02-11T21:25:33.682Z,2.70
2019-02-11T21:28:03.900Z,2.80
2019-02-11T21:30:33.633Z,2.70
2019-02-11T21:33:03.283Z,2.70
2019-02-11T21:35:32.979Z,2.70
2019-02-11T21:38:02.738Z,2.70
2019-02-11T21:40:32.416Z,2.70
2019-02-11T21:43:02.084Z,2.70
2019-02-11T21:45:31.778Z,2.70
2019-02-11T21:48:01.440Z,2.70
2019-02-11T21:50:31.127Z,2.60
2019-02-11T21:53:00.935Z,2.60
2019-02-11T21:55:30.571Z,2.50
2019-02-11T21:58:00.181Z,2.40
2019-02-11T22:00:30.011Z,2.40
2019-02-11T22:02:59.773Z,2.40
2019-02-11T22:05:29.534Z,2.40
2019-02-11T22:07:59.319Z,2.30
2019-02-11T22:10:28.985Z,2.30
2019-02-11T22:12:59.057Z,2.30
2019-02-11T22:15:28.704Z,2.20
2019-02-11T22:17:58.320Z,2.20
2019-02-11T22:20:34.541Z,2.20
2019-02-11T22:22:59.331Z,2.10
2019-02-11T22:25:28.980Z,2.20
2019-02-11T22:27:58.705Z,2.30
2019-02-11T22:30:28.345Z,2.30
2019-02-11T22:32:58.031Z,2.40
2019-02-11T22:35:27.651Z,2.40
2019-02-11T22:37:57.309Z,2.50
2019-02-11T22:40:26.941Z,2.50
2019-02-11T22:42:56.593Z,2.60
2019-02-11T22:45:26.279Z,2.60
2019-02-11T22:47:55.936Z,2.70
2019-02-11T22:50:25.650Z,2.70
2019-02-11T22:52:55.284Z,2.70
2019-02-11T22:55:24.938Z,2.80
2019-02-11T22:57:54.638Z,2.80
2019-02-11T23:00:52.238Z,2.80
2019-02-11T23:03:21.898Z,2.70
2019-02-11T23:05:51.567Z,2.70
2019-02-11T23:08:21.255Z,2.60
2019-02-11T23:10:51.007Z,2.60
2019-02-11T23:13:20.675Z,2.60
2019-02-11T23:15:50.368Z,2.70
2019-02-11T23:18:20.051Z,2.70
2019-02-11T23:20:52.071Z,2.70
2019-02-11T23:23:20.993Z,2.80
2019-02-11T23:25:50.695Z,2.80
2019-02-11T23:28:20.382Z,2.80
2019-02-11T23:30:50.071Z,2.80
2019-02-11T23:33:19.687Z,2.80
2019-02-11T23:35:49.362Z,2.80
2019-02-11T23:38:19.076Z,2.70
2019-02-11T23:40:48.735Z,2.80
2019-02-11T23:43:18.427Z,2.80
2019-02-11T23:45:48.172Z,2.80
2019-02-11T23:48:17.850Z,2.80
2019-02-11T23:50:47.584Z,2.80
2019-02-11T23:53:17.229Z,2.80
2019-02-11T23:55:46.954Z,2.80
2019-02-11T23:58:16.614Z,2.80
